createdAt,value
2022-08-18T00:01:15.087Z,35.55
2022-08-18T00:03:56.143Z,31.23
2022-08-18T00:06:28.829Z,34.17
2022-08-18T00:08:57.300Z,34.60
2022-08-18T00:11:24.392Z,32.30
2022-08-18T00:13:51.347Z,35.58
2022-08-18T00:16:18.196Z,37.50
2022-08-18T00:18:44.987Z,33.45
2022-08-18T00:21:12.146Z,33.35
2022-08-18T00:23:39.187Z,34.28
2022-08-18T00:26:06.396Z,36.17
2022-08-18T00:28:33.274Z,36.67
2022-08-18T00:31:00.268Z,37.92
2022-08-18T00:33:27.423Z,32.58
2022-08-18T00:35:54.369Z,34.05
2022-08-18T00:38:24.355Z,33.03
2022-08-18T00:40:53.788Z,31.35
2022-08-18T00:43:23.978Z,38.28
2022-08-18T00:45:51.457Z,39.85
2022-08-18T00:48:18.762Z,38.13
2022-08-18T00:50:51.708Z,37.67
2022-08-18T00:53:26.367Z,41.65
2022-08-18T00:55:55.109Z,40.25
2022-08-18T00:58:34.390Z,38.75
2022-08-18T01:01:06.471Z,49.45
2022-08-18T01:03:36.353Z,44.45
2022-08-18T01:06:16.312Z,42.47
2022-08-18T01:08:43.402Z,44.83
2022-08-18T01:11:10.881Z,45.55
2022-08-18T01:13:41.540Z,45.92
2022-08-18T01:16:37.973Z,48.03
2022-08-18T01:19:38.786Z,48.88
2022-08-18T01:22:34.244Z,51.53
2022-08-18T01:25:20.947Z,52.23
2022-08-18T01:27:51.760Z,51.53
2022-08-18T01:30:19.332Z,49.30
2022-08-18T01:32:46.147Z,46.08
2022-08-18T01:35:17.616Z,53.38
2022-08-18T01:37:44.612Z,53.28
2022-08-18T01:41:21.105Z,56.60
2022-08-18T01:43:03.648Z,59.85
2022-08-18T01:45:33.362Z,57.05
2022-08-18T01:48:00.692Z,60.35
2022-08-18T01:50:27.863Z,59.83
2022-08-18T01:52:54.868Z,58.80
2022-08-18T01:55:21.872Z,66.75
2022-08-18T01:57:48.787Z,64.68
2022-08-18T02:00:17.992Z,65.68
2022-08-18T02:02:47.052Z,72.00
2022-08-18T02:05:34.579Z,71.30
2022-08-18T02:08:02.405Z,69.80
2022-08-18T02:10:29.535Z,74.90
2022-08-18T02:12:56.577Z,72.75
2022-08-18T02:15:23.514Z,72.35
2022-08-18T02:17:50.620Z,73.00
2022-08-18T02:20:19.063Z,75.93
2022-08-18T02:22:47.291Z,76.45
2022-08-18T02:25:15.345Z,74.53
2022-08-18T02:27:42.853Z,68.05
2022-08-18T02:30:13.242Z,67.25
2022-08-18T02:32:40.240Z,69.13
2022-08-18T02:35:11.810Z,69.05
2022-08-18T02:37:42.785Z,68.93
2022-08-18T02:40:15.147Z,63.92
2022-08-18T02:42:44.419Z,61.28
2022-08-18T02:45:12.786Z,64.57
2022-08-18T02:47:40.113Z,65.28
2022-08-18T02:50:07.763Z,61.22
2022-08-18T02:52:38.387Z,62.60
2022-08-18T02:55:08.195Z,64.50
2022-08-18T02:57:35.394Z,62.97
2022-08-18T03:00:02.415Z,61.38
2022-08-18T03:02:29.738Z,61.70
2022-08-18T03:04:56.570Z,61.40
2022-08-18T03:07:24.142Z,66.88
2022-08-18T03:09:51.020Z,123.85
2022-08-18T03:12:18.505Z,68.78
2022-08-18T03:14:46.656Z,79.65
2022-08-18T03:17:14.951Z,85.47
2022-08-18T03:19:44.969Z,137.75
2022-08-18T03:22:28.256Z,73.07
2022-08-18T03:24:57.220Z,78.25
2022-08-18T03:27:24.349Z,103.22
2022-08-18T03:29:51.487Z,198.85
2022-08-18T03:32:18.838Z,128.00
2022-08-18T03:34:45.850Z,293.10
2022-08-18T03:37:15.944Z,346.02
2022-08-18T03:39:42.982Z,479.42
2022-08-18T03:42:10.866Z,217.40
2022-08-18T03:44:37.736Z,94.75
2022-08-18T03:47:09.328Z,78.75
2022-08-18T03:49:37.785Z,83.97
2022-08-18T03:52:07.260Z,88.88
2022-08-18T03:54:34.084Z,182.48
2022-08-18T03:57:01.287Z,82.70
2022-08-18T03:59:30.626Z,76.55
2022-08-18T04:01:57.845Z,70.03
2022-08-18T04:04:27.169Z,72.07
2022-08-18T04:06:58.466Z,110.70
2022-08-18T04:09:28.563Z,113.57
2022-08-18T04:11:56.443Z,311.65
2022-08-18T04:14:27.436Z,160.65
2022-08-18T04:16:54.317Z,230.65
2022-08-18T04:19:26.973Z,213.10
2022-08-18T04:21:56.952Z,228.85
2022-08-18T04:24:24.495Z,155.18
2022-08-18T04:26:51.890Z,126.18
2022-08-18T04:29:21.386Z,154.32
2022-08-18T04:31:50.010Z,134.85
2022-08-18T04:34:17.439Z,119.63
2022-08-18T04:36:44.676Z,105.47
2022-08-18T04:39:13.085Z,94.43
2022-08-18T04:41:42.023Z,95.28
2022-08-18T04:44:11.306Z,98.28
2022-08-18T04:46:41.492Z,97.03
2022-08-18T04:49:10.302Z,97.85
2022-08-18T04:52:30.982Z,88.78
2022-08-18T04:54:26.780Z,96.85
2022-08-18T04:56:55.035Z,89.25
2022-08-18T04:59:21.812Z,94.55
2022-08-18T05:01:48.601Z,112.53
2022-08-18T05:04:17.406Z,99.22
2022-08-18T05:06:45.243Z,110.70
2022-08-18T05:09:16.580Z,94.97
2022-08-18T05:11:44.651Z,93.88
2022-08-18T05:14:12.091Z,90.70
2022-08-18T05:16:48.185Z,92.45
2022-08-18T05:19:21.993Z,80.97
2022-08-18T05:21:51.526Z,90.65
2022-08-18T05:24:20.403Z,89.10
2022-08-18T05:26:48.820Z,85.95
2022-08-18T05:29:18.628Z,82.72
2022-08-18T05:31:47.926Z,85.60
2022-08-18T05:34:15.822Z,86.18
2022-08-18T05:36:48.707Z,88.30
2022-08-18T05:39:30.221Z,83.88
2022-08-18T05:42:14.437Z,81.75
2022-08-18T05:44:45.088Z,86.18
2022-08-18T05:47:14.899Z,85.65
2022-08-18T05:49:44.877Z,81.63
2022-08-18T05:52:39.188Z,77.03
2022-08-18T05:55:39.313Z,81.70
2022-08-18T05:58:13.572Z,73.63
2022-08-18T06:00:44.733Z,77.28
2022-08-18T06:03:21.301Z,80.85
2022-08-18T06:05:58.857Z,77.97
2022-08-18T06:08:30.179Z,76.20
2022-08-18T06:10:57.259Z,74.93
2022-08-18T06:13:24.169Z,83.55
2022-08-18T06:15:59.764Z,80.50
2022-08-18T06:18:38.344Z,82.57
2022-08-18T06:21:20.192Z,85.45
2022-08-18T06:24:00.744Z,86.38
2022-08-18T06:26:58.492Z,86.63
2022-08-18T06:29:25.289Z,87.55
2022-08-18T06:32:14.434Z,88.53
2022-08-18T06:34:42.587Z,83.72
2022-08-18T06:37:22.206Z,90.70
2022-08-18T06:39:51.717Z,85.15
2022-08-18T06:42:21.489Z,83.93
2022-08-18T06:44:53.509Z,80.57
2022-08-18T06:47:53.074Z,72.45
2022-08-18T06:50:30.487Z,69.38
2022-08-18T06:52:58.845Z,68.53
2022-08-18T06:55:37.701Z,64.80
2022-08-18T06:58:25.846Z,62.63
2022-08-18T07:00:55.992Z,52.35
2022-08-18T07:03:46.315Z,48.72
2022-08-18T07:06:21.122Z,41.28
2022-08-18T07:08:49.946Z,41.90
2022-08-18T07:11:32.612Z,42.17
2022-08-18T07:14:18.789Z,41.10
2022-08-18T07:17:01.029Z,37.42
2022-08-18T07:19:32.054Z,33.92
2022-08-18T07:22:07.092Z,33.92
2022-08-18T07:24:55.606Z,36.40
2022-08-18T07:27:44.714Z,35.97
2022-08-18T07:30:25.313Z,34.35
2022-08-18T07:33:12.576Z,36.35
2022-08-18T07:35:58.327Z,40.85
2022-08-18T07:41:20.263Z,41.95
2022-08-18T07:43:51.287Z,41.20
2022-08-18T07:46:30.404Z,44.60
2022-08-18T07:49:00.720Z,45.60
2022-08-18T07:51:45.562Z,42.33
2022-08-18T07:54:47.718Z,45.67
2022-08-18T07:57:23.937Z,46.50
2022-08-18T08:00:35.138Z,47.97
2022-08-18T08:03:06.132Z,48.28
2022-08-18T08:05:40.438Z,40.80
2022-08-18T08:08:35.209Z,40.83
2022-08-18T08:11:16.937Z,39.17
2022-08-18T08:13:59.108Z,36.10
2022-08-18T08:16:35.589Z,30.75
2022-08-18T08:19:14.837Z,31.23
2022-08-18T08:22:01.037Z,29.88
2022-08-18T08:24:44.640Z,24.83
2022-08-18T08:27:22.253Z,24.98
2022-08-18T08:30:09.864Z,21.80
2022-08-18T08:32:52.981Z,22.20
2022-08-18T08:35:48.562Z,25.73
2022-08-18T08:38:42.908Z,27.40
2022-08-18T08:41:19.747Z,27.95
2022-08-18T08:43:56.352Z,23.17
2022-08-18T08:46:29.889Z,26.48
2022-08-18T08:49:02.474Z,27.23
2022-08-18T08:51:50.519Z,26.92
2022-08-18T08:54:25.142Z,32.38
2022-08-18T08:56:55.272Z,33.35
2022-08-18T08:59:24.971Z,31.55
2022-08-18T09:01:58.129Z,28.95
2022-08-18T09:04:33.923Z,29.13
2022-08-18T09:07:06.607Z,29.75
2022-08-18T09:09:56.422Z,26.27
2022-08-18T09:12:47.921Z,30.48
2022-08-18T09:15:24.970Z,25.75
2022-08-18T09:18:00.620Z,31.70
2022-08-18T09:20:49.178Z,27.70
2022-08-18T09:23:31.026Z,26.80
2022-08-18T09:26:19.739Z,28.08
2022-08-18T09:29:10.669Z,26.73
2022-08-18T09:31:38.544Z,24.70
2022-08-18T09:34:36.892Z,23.02
2022-08-18T09:37:18.804Z,25.65
2022-08-18T09:41:01.218Z,25.15
2022-08-18T09:44:12.103Z,21.70
2022-08-18T09:46:48.664Z,19.52
2022-08-18T09:49:27.828Z,25.63
2022-08-18T09:52:00.428Z,19.35
2022-08-18T09:54:33.651Z,20.00
2022-08-18T09:57:03.735Z,20.45
2022-08-18T09:59:35.178Z,14.77
2022-08-18T10:02:18.735Z,21.25
2022-08-18T10:04:50.519Z,14.30
2022-08-18T10:07:43.847Z,15.95
2022-08-18T10:13:09.684Z,23.27
2022-08-18T10:15:47.201Z,14.65
2022-08-18T10:18:17.184Z,16.60
2022-08-18T10:21:11.353Z,14.98
2022-08-18T10:24:32.220Z,13.02
2022-08-18T10:26:55.555Z,17.75
2022-08-18T10:29:28.574Z,13.27
2022-08-18T10:32:01.419Z,14.05
2022-08-18T10:34:53.436Z,10.82
2022-08-18T10:37:42.217Z,16.55
2022-08-18T10:40:13.275Z,16.48
2022-08-18T10:42:45.631Z,14.35
2022-08-18T10:45:30.674Z,10.85
2022-08-18T10:51:25.877Z,15.13
2022-08-18T10:54:18.581Z,13.90
2022-08-18T10:56:54.491Z,19.15
2022-08-18T11:02:31.061Z,13.52
2022-08-18T11:04:59.808Z,13.88
2022-08-18T11:07:34.057Z,15.38
2022-08-18T11:10:32.750Z,14.97
2022-08-18T11:13:35.342Z,15.52
2022-08-18T11:16:27.661Z,12.18
2022-08-18T11:19:06.012Z,17.02
2022-08-18T11:21:42.326Z,10.98
2022-08-18T11:24:24.836Z,7.75
2022-08-18T11:26:58.608Z,14.07
2022-08-18T11:29:40.875Z,11.43
2022-08-18T11:32:28.267Z,10.32
2022-08-18T11:38:05.072Z,12.13
2022-08-18T11:43:40.981Z,11.43
2022-08-18T11:46:17.035Z,10.30
2022-08-18T11:48:52.588Z,7.38
2022-08-18T11:51:27.293Z,8.25
2022-08-18T11:54:21.698Z,10.73
2022-08-18T11:59:53.923Z,8.60
2022-08-18T12:02:17.912Z,10.57
2022-08-18T12:04:50.454Z,7.97
2022-08-18T12:07:31.978Z,11.40
2022-08-18T12:13:10.229Z,10.30
2022-08-18T12:15:43.992Z,9.45
2022-08-18T12:18:26.374Z,9.60
2022-08-18T12:20:58.461Z,9.10
2022-08-18T12:23:25.631Z,11.88
2022-08-18T12:25:52.578Z,13.25
2022-08-18T12:28:22.349Z,9.80
2022-08-18T12:30:56.130Z,13.13
2022-08-18T12:33:25.631Z,8.70
2022-08-18T12:36:04.126Z,10.60
2022-08-18T12:38:33.199Z,10.30
2022-08-18T12:41:05.353Z,10.82
2022-08-18T12:43:32.613Z,8.70
2022-08-18T12:46:01.101Z,9.55
2022-08-18T12:48:31.380Z,9.27
2022-08-18T12:53:59.475Z,10.68
2022-08-18T12:56:30.600Z,11.48
2022-08-18T12:59:00.437Z,10.05
2022-08-18T13:01:32.475Z,7.28
2022-08-18T13:04:12.635Z,12.27
2022-08-18T13:06:58.779Z,8.38
2022-08-18T13:09:35.203Z,9.70
2022-08-18T13:12:15.164Z,6.82
2022-08-18T13:14:43.652Z,10.55
2022-08-18T13:17:15.254Z,10.55
2022-08-18T13:19:57.008Z,8.85
2022-08-18T13:22:31.874Z,11.43
2022-08-18T13:24:59.352Z,7.63
2022-08-18T13:27:30.948Z,10.18
2022-08-18T13:30:00.687Z,9.35
2022-08-18T13:32:29.880Z,12.43
2022-08-18T13:35:09.023Z,7.63
2022-08-18T13:37:41.488Z,11.35
2022-08-18T13:40:12.631Z,7.35
2022-08-18T13:42:50.776Z,9.82
2022-08-18T13:45:25.133Z,11.07
2022-08-18T13:47:52.708Z,7.83
2022-08-18T13:50:21.100Z,9.63
2022-08-18T13:53:02.065Z,7.15
2022-08-18T13:55:29.174Z,7.88
2022-08-18T13:57:56.546Z,4.40
2022-08-18T14:00:29.528Z,8.55
2022-08-18T14:02:58.800Z,11.15
2022-08-18T14:05:36.870Z,6.60
2022-08-18T14:08:19.161Z,6.32
2022-08-18T14:10:50.979Z,8.35
2022-08-18T14:13:20.752Z,9.30
2022-08-18T14:15:54.892Z,11.95
2022-08-18T14:18:29.074Z,10.27
2022-08-18T14:21:17.067Z,13.57
2022-08-18T14:24:10.222Z,9.20
2022-08-18T14:26:51.050Z,12.45
2022-08-18T14:29:47.015Z,10.88
2022-08-18T14:32:07.099Z,9.73
2022-08-18T14:34:34.198Z,7.53
2022-08-18T14:37:03.027Z,9.68
2022-08-18T14:39:29.911Z,10.98
2022-08-18T14:41:58.593Z,6.03
2022-08-18T14:44:31.688Z,8.73
2022-08-18T14:46:59.410Z,7.47
2022-08-18T14:49:29.118Z,9.20
2022-08-18T14:51:57.827Z,12.93
2022-08-18T14:54:28.726Z,8.45
2022-08-18T14:56:57.823Z,7.78
2022-08-18T14:59:25.547Z,6.05
2022-08-18T15:01:53.433Z,10.05
2022-08-18T15:04:21.302Z,9.02
2022-08-18T15:06:56.012Z,9.15
2022-08-18T15:09:26.908Z,10.38
2022-08-18T15:11:56.190Z,6.47
2022-08-18T15:14:32.647Z,11.10
2022-08-18T15:17:11.793Z,10.63
2022-08-18T15:20:00.702Z,8.15
2022-08-18T15:22:45.608Z,10.68
2022-08-18T15:25:30.916Z,11.25
2022-08-18T15:27:59.163Z,11.27
2022-08-18T15:30:26.100Z,14.02
2022-08-18T15:32:54.535Z,8.50
2022-08-18T15:35:21.455Z,11.43
2022-08-18T15:37:51.285Z,12.57
2022-08-18T15:40:31.033Z,13.30
2022-08-18T15:43:06.949Z,8.73
2022-08-18T15:45:43.171Z,12.13
2022-08-18T15:48:24.476Z,8.18
2022-08-18T15:50:52.541Z,12.55
2022-08-18T15:53:29.908Z,7.53
2022-08-18T15:55:57.490Z,12.80
2022-08-18T15:58:26.656Z,11.18
2022-08-18T16:00:54.499Z,15.88
2022-08-18T16:03:21.774Z,9.63
2022-08-18T16:05:54.312Z,11.80
2022-08-18T16:08:24.134Z,12.82
2022-08-18T16:10:52.108Z,10.57
2022-08-18T16:13:19.211Z,9.48
2022-08-18T16:15:48.434Z,9.93
2022-08-18T16:18:17.284Z,8.57
2022-08-18T16:20:44.821Z,9.50
2022-08-18T16:23:12.776Z,11.55
2022-08-18T16:25:41.167Z,10.60
2022-08-18T16:28:08.758Z,8.80
2022-08-18T16:30:36.130Z,15.35
2022-08-18T16:33:05.313Z,7.50
2022-08-18T16:35:33.402Z,11.90
2022-08-18T16:38:09.466Z,11.70
2022-08-18T16:40:37.529Z,9.57
2022-08-18T16:43:05.939Z,6.55
2022-08-18T16:45:34.643Z,7.40
2022-08-18T16:48:02.460Z,8.23
2022-08-18T16:50:30.030Z,9.15
2022-08-18T16:52:57.774Z,7.95
2022-08-18T16:55:24.751Z,6.63
2022-08-18T16:58:13.701Z,10.73
2022-08-18T17:01:01.852Z,11.00
2022-08-18T17:03:47.165Z,7.63
2022-08-18T17:06:19.286Z,8.02
2022-08-18T17:08:46.949Z,12.18
2022-08-18T17:11:16.968Z,8.32
2022-08-18T17:13:45.797Z,8.45
2022-08-18T17:16:13.572Z,6.18
2022-08-18T17:18:41.212Z,9.88
2022-08-18T17:21:13.252Z,8.57
2022-08-18T17:23:41.076Z,9.23
2022-08-18T17:26:33.742Z,6.18
2022-08-18T17:29:12.635Z,9.05
2022-08-18T17:31:56.388Z,10.27
2022-08-18T17:34:31.479Z,6.65
2022-08-18T17:37:01.405Z,7.68
2022-08-18T17:39:36.156Z,10.05
2022-08-18T17:42:22.438Z,9.80
2022-08-18T17:44:52.444Z,9.45
2022-08-18T17:47:35.565Z,9.40
2022-08-18T17:50:28.676Z,8.38
2022-08-18T17:53:05.449Z,6.68
2022-08-18T17:55:41.286Z,9.50
2022-08-18T17:58:28.019Z,13.88
2022-08-18T18:00:54.921Z,7.30
2022-08-18T18:03:22.971Z,8.93
2022-08-18T18:05:55.155Z,6.95
2022-08-18T18:08:54.900Z,6.97
2022-08-18T18:11:28.588Z,9.20
2022-08-18T18:13:55.563Z,7.28
2022-08-18T18:16:35.393Z,7.40
2022-08-18T18:19:06.808Z,8.25
2022-08-18T18:22:00.136Z,10.25
2022-08-18T18:24:30.649Z,13.80
2022-08-18T18:26:58.267Z,9.13
2022-08-18T18:29:38.134Z,6.45
2022-08-18T18:32:31.338Z,5.97
2022-08-18T18:35:29.586Z,9.82
2022-08-18T18:38:03.952Z,11.32
2022-08-18T18:40:34.840Z,7.30
2022-08-18T18:43:22.329Z,14.50
2022-08-18T18:46:01.207Z,13.63
2022-08-18T18:48:48.068Z,9.73
2022-08-18T18:51:36.070Z,12.10
2022-08-18T18:54:33.934Z,14.13
2022-08-18T18:57:02.696Z,13.70
2022-08-18T18:59:47.847Z,11.68
2022-08-18T19:02:38.794Z,16.92
2022-08-18T19:05:26.148Z,14.25
2022-08-18T19:08:04.817Z,23.25
2022-08-18T19:10:55.178Z,10.52
2022-08-18T19:13:34.861Z,16.88
2022-08-18T19:16:28.358Z,16.25
2022-08-18T19:19:38.071Z,12.98
2022-08-18T19:22:19.191Z,10.98
2022-08-18T19:24:54.213Z,17.45
2022-08-18T19:27:29.153Z,13.23
2022-08-18T19:30:00.726Z,13.40
2022-08-18T19:32:46.653Z,16.83
2022-08-18T19:35:19.845Z,15.35
2022-08-18T19:38:04.286Z,13.18
2022-08-18T19:40:48.518Z,13.40
2022-08-18T19:43:43.687Z,13.05
2022-08-18T19:46:34.622Z,11.53
2022-08-18T19:49:18.421Z,9.93
2022-08-18T19:51:48.687Z,10.25
2022-08-18T19:54:27.547Z,8.68
2022-08-18T19:57:03.647Z,13.23
2022-08-18T19:59:44.443Z,10.02
2022-08-18T20:02:32.901Z,11.18
2022-08-18T20:05:36.319Z,9.77
2022-08-18T20:08:38.014Z,10.50
2022-08-18T20:11:16.799Z,13.10
2022-08-18T20:13:45.263Z,10.82
2022-08-18T20:16:28.577Z,15.20
2022-08-18T20:19:44.550Z,10.38
2022-08-18T20:22:28.987Z,14.77
2022-08-18T20:25:11.257Z,10.65
2022-08-18T20:27:52.647Z,9.60
2022-08-18T20:30:38.171Z,10.30
2022-08-18T20:33:14.188Z,12.18
2022-08-18T20:35:46.954Z,12.50
2022-08-18T20:38:18.437Z,14.80
2022-08-18T20:40:51.014Z,11.50
2022-08-18T20:43:33.501Z,15.48
2022-08-18T20:46:37.508Z,10.63
2022-08-18T20:49:45.022Z,9.50
2022-08-18T20:52:43.956Z,12.52
2022-08-18T20:55:17.104Z,10.15
2022-08-18T20:57:44.866Z,14.10
2022-08-18T21:00:26.962Z,12.90
2022-08-18T21:02:59.687Z,10.93
2022-08-18T21:05:32.709Z,8.52
2022-08-18T21:08:07.444Z,15.90
2022-08-18T21:10:34.575Z,11.32
2022-08-18T21:13:04.159Z,14.13
2022-08-18T21:15:38.035Z,8.35
2022-08-18T21:18:18.215Z,10.18
2022-08-18T21:20:50.882Z,9.55
2022-08-18T21:23:29.349Z,9.82
2022-08-18T21:25:59.800Z,8.35
2022-08-18T21:28:31.378Z,15.80
2022-08-18T21:31:41.773Z,8.57
2022-08-18T21:33:51.547Z,13.13
2022-08-18T21:36:23.332Z,11.57
2022-08-18T21:38:58.541Z,10.07
2022-08-18T21:41:39.291Z,8.10
2022-08-18T21:44:13.264Z,10.05
2022-08-18T21:46:40.687Z,16.05
2022-08-18T21:49:07.545Z,10.18
2022-08-18T21:51:48.777Z,13.45
2022-08-18T21:54:21.862Z,12.93
2022-08-18T21:56:49.197Z,10.88
2022-08-18T21:59:19.065Z,9.95
2022-08-18T22:01:57.342Z,9.73
2022-08-18T22:04:24.305Z,9.88
2022-08-18T22:06:55.065Z,8.88
2022-08-18T22:09:43.882Z,10.82
2022-08-18T22:12:54.340Z,8.88
2022-08-18T22:15:24.313Z,10.15
2022-08-18T22:18:01.360Z,9.93
2022-08-18T22:20:46.942Z,9.80
2022-08-18T22:23:32.399Z,9.68
2022-08-18T22:26:25.479Z,8.85
2022-08-18T22:29:13.397Z,12.75
2022-08-18T22:31:49.889Z,14.82
2022-08-18T22:34:27.169Z,14.45
2022-08-18T22:37:00.848Z,13.85
2022-08-18T22:40:06.467Z,12.35
2022-08-18T22:42:33.781Z,12.52
2022-08-18T22:45:03.599Z,15.25
2022-08-18T22:47:34.095Z,14.60
2022-08-18T22:50:10.924Z,15.43
2022-08-18T22:52:41.737Z,11.88
2022-08-18T22:55:11.252Z,12.98
2022-08-18T22:57:39.699Z,14.13
2022-08-18T23:00:14.494Z,13.30
2022-08-18T23:02:41.966Z,17.23
2022-08-18T23:05:10.799Z,11.80
2022-08-18T23:07:37.594Z,15.75
2022-08-18T23:10:12.538Z,19.40
2022-08-18T23:12:43.036Z,17.48
2022-08-18T23:15:11.498Z,16.38
2022-08-18T23:17:39.391Z,17.35
2022-08-18T23:20:11.292Z,19.55
2022-08-18T23:22:40.728Z,18.00
2022-08-18T23:25:09.499Z,17.92
2022-08-18T23:27:36.617Z,13.80
2022-08-18T23:30:04.889Z,14.80
2022-08-18T23:32:32.239Z,13.35
2022-08-18T23:34:59.392Z,19.98
2022-08-18T23:37:26.480Z,20.83
2022-08-18T23:39:53.340Z,16.67
2022-08-18T23:42:23.147Z,17.58
2022-08-18T23:44:50.465Z,21.42
2022-08-18T23:47:20.696Z,22.52
2022-08-18T23:49:47.938Z,21.52
2022-08-18T23:52:14.778Z,19.13
2022-08-18T23:54:41.949Z,21.92
2022-08-18T23:57:08.812Z,24.15
2022-08-18T23:59:35.699Z,19.73
